^^
TXWeather Station Historical Data
Daily Summary for January 15, 2022 Units:  Both    English   Metric
Daily Weekly Monthly Yearly Custom
  High: Low: Average:
Temperature: 61.0 °F /  16.1 °C 36.0 °F /  2.2 °C 48.7 °F /  9.3 °C
Dew Point: 57.0 °F /  13.9 °C 23.0 °F /  -5 °C 34.2 °F /  1.2 °C
Humidity: 88% 41% 59%
Wind Speed: 32mph /  51.5km/h - 16.4mph /  26.4km/h
Wind Gust: 32mph /  51.5km/h - -
Wind- - WNW
Pressure: 30.2 in /  1022.6 hPa 29.9 in /  1012.4 hPa -
Precipitation: 0.010 in /  0.25 mm    
Historical Graphs
 
 
Tabular Data for January 15, 2022
Time Temperature Dew Point Pressure Wind Wind Speed Wind Gust Humidity Rainfall Rate (Hourly) solar
00:04 61.0 °F /  16.1 °C 56.0 °F /  13.3 °C 29.9in /  1012.4hPa SE 3mph /  4.8km/h 4mph /  6.4km/h 84% 0.000in /  0mm 0.00 W/m2
00:09 61.0 °F /  16.1 °C 56.0 °F /  13.3 °C 29.9in /  1012.4hPa SE 3mph /  4.8km/h 3mph /  4.8km/h 84% 0.000in /  0mm 0.00 W/m2
00:14 60.0 °F /  15.6 °C 56.0 °F /  13.3 °C 29.9in /  1012.4hPa SE 3mph /  4.8km/h 3mph /  4.8km/h 84% 0.000in /  0mm 0.00 W/m2
00:19 60.0 °F /  15.6 °C 56.0 °F /  13.3 °C 29.9in /  1012.4hPa SE 3mph /  4.8km/h 3mph /  4.8km/h 84% 0.000in /  0mm 0.00 W/m2
00:24 60.0 °F /  15.6 °C 56.0 °F /  13.3 °C 29.9in /  1012.4hPa SE 3mph /  4.8km/h 3mph /  4.8km/h 84% 0.000in /  0mm 0.00 W/m2
00:29 60.0 °F /  15.6 °C 56.0 °F /  13.3 °C 29.9in /  1012.4hPa SE 4mph /  6.4km/h 4mph /  6.4km/h 84% 0.000in /  0mm 0.00 W/m2
00:34 60.0 °F /  15.6 °C 55.0 °F /  12.8 °C 29.9in /  1012.4hPa SE 2mph /  3.2km/h 3mph /  4.8km/h 84% 0.000in /  0mm 0.00 W/m2
00:39 60.0 °F /  15.6 °C 55.0 °F /  12.8 °C 29.9in /  1012.4hPa SE 3mph /  4.8km/h 3mph /  4.8km/h 84% 0.000in /  0mm 0.00 W/m2
00:44 60.0 °F /  15.6 °C 55.0 °F /  12.8 °C 29.9in /  1012.4hPa SE 3mph /  4.8km/h 3mph /  4.8km/h 84% 0.000in /  0mm 0.00 W/m2
00:49 60.0 °F /  15.6 °C 55.0 °F /  12.8 °C 29.9in /  1012.4hPa SE 2mph /  3.2km/h 3mph /  4.8km/h 84% 0.000in /  0mm 0.00 W/m2
00:54 60.0 °F /  15.6 °C 56.0 °F /  13.3 °C 29.9in /  1012.4hPa SSE 3mph /  4.8km/h 3mph /  4.8km/h 85% 0.000in /  0mm 0.00 W/m2
00:59 60.0 °F /  15.6 °C 56.0 °F /  13.3 °C 29.9in /  1012.4hPa SE 2mph /  3.2km/h 3mph /  4.8km/h 85% 0.000in /  0mm 0.00 W/m2
01:04 60.0 °F /  15.6 °C 56.0 °F /  13.3 °C 29.9in /  1012.4hPa SSE 3mph /  4.8km/h 3mph /  4.8km/h 85% 0.000in /  0mm 0.00 W/m2
01:09 60.0 °F /  15.6 °C 55.0 °F /  12.8 °C 29.9in /  1012.4hPa SSE 4mph /  6.4km/h 4mph /  6.4km/h 85% 0.000in /  0mm 0.00 W/m2
01:14 60.0 °F /  15.6 °C 55.0 °F /  12.8 °C 29.9in /  1012.4hPa SSE 4mph /  6.4km/h 4mph /  6.4km/h 85% 0.000in /  0mm 0.00 W/m2
01:19 60.0 °F /  15.6 °C 55.0 °F /  12.8 °C 29.9in /  1012.4hPa SE 3mph /  4.8km/h 4mph /  6.4km/h 85% 0.000in /  0mm 0.00 W/m2
01:24 60.0 °F /  15.6 °C 55.0 °F /  12.8 °C 29.9in /  1012.4hPa SSE 3mph /  4.8km/h 3mph /  4.8km/h 85% 0.000in /  0mm 0.00 W/m2
01:29 60.0 °F /  15.6 °C 55.0 °F /  12.8 °C 29.9in /  1012.4hPa SSE 4mph /  6.4km/h 5mph /  8km/h 85% 0.000in /  0mm 0.00 W/m2
01:34 60.0 °F /  15.6 °C 55.0 °F /  12.8 °C 29.9in /  1012.4hPa SSE 3mph /  4.8km/h 3mph /  4.8km/h 85% 0.000in /  0mm 0.00 W/m2
01:39 60.0 °F /  15.6 °C 56.0 °F /  13.3 °C 29.9in /  1012.4hPa SSE 5mph /  8km/h 5mph /  8km/h 86% 0.000in /  0mm 0.00 W/m2
01:44 60.0 °F /  15.6 °C 56.0 °F /  13.3 °C 29.9in /  1012.4hPa SSE 5mph /  8km/h 5mph /  8km/h 86% 0.000in /  0mm 0.00 W/m2
01:49 60.0 °F /  15.6 °C 56.0 °F /  13.3 °C 29.9in /  1012.4hPa SSE 3mph /  4.8km/h 4mph /  6.4km/h 86% 0.000in /  0mm 0.00 W/m2
01:54 60.0 °F /  15.6 °C 56.0 °F /  13.3 °C 29.9in /  1012.4hPa SSE 4mph /  6.4km/h 5mph /  8km/h 86% 0.000in /  0mm 0.00 W/m2
01:59 60.0 °F /  15.6 °C 56.0 °F /  13.3 °C 29.9in /  1012.4hPa SSE 4mph /  6.4km/h 4mph /  6.4km/h 86% 0.000in /  0mm 0.00 W/m2
02:04 60.0 °F /  15.6 °C 56.0 °F /  13.3 °C 29.9in /  1012.4hPa South 3mph /  4.8km/h 4mph /  6.4km/h 86% 0.000in /  0mm 0.00 W/m2
02:09 60.0 °F /  15.6 °C 56.0 °F /  13.3 °C 29.9in /  1012.4hPa South 2mph /  3.2km/h 2mph /  3.2km/h 86% 0.000in /  0mm 0.00 W/m2
02:14 60.0 °F /  15.6 °C 56.0 °F /  13.3 °C 29.9in /  1012.4hPa South 2mph /  3.2km/h 3mph /  4.8km/h 86% 0.000in /  0mm 0.00 W/m2
02:19 60.0 °F /  15.6 °C 56.0 °F /  13.3 °C 29.9in /  1012.4hPa South 2mph /  3.2km/h 2mph /  3.2km/h 86% 0.000in /  0mm 0.00 W/m2
02:24 60.0 °F /  15.6 °C 56.0 °F /  13.3 °C 29.9in /  1012.4hPa South 1mph /  1.6km/h 1mph /  1.6km/h 86% 0.000in /  0mm 0.00 W/m2
02:29 60.0 °F /  15.6 °C 56.0 °F /  13.3 °C 29.9in /  1012.4hPa Calm   1mph /  1.6km/h 86% 0.000in /  0mm 0.00 W/m2
02:34 60.0 °F /  15.6 °C 55.0 °F /  12.8 °C 29.9in /  1012.4hPa South 1mph /  1.6km/h 1mph /  1.6km/h 86% 0.000in /  0mm 0.00 W/m2
02:39 60.0 °F /  15.6 °C 55.0 °F /  12.8 °C 29.9in /  1012.4hPa South 1mph /  1.6km/h 1mph /  1.6km/h 86% 0.000in /  0mm 0.00 W/m2
02:44 60.0 °F /  15.6 °C 55.0 °F /  12.8 °C 29.9in /  1012.4hPa SW 2mph /  3.2km/h 3mph /  4.8km/h 86% 0.000in /  0mm 0.00 W/m2
02:49 60.0 °F /  15.6 °C 55.0 °F /  12.8 °C 29.9in /  1012.4hPa WNW 2mph /  3.2km/h 3mph /  4.8km/h 86% 0.000in /  0mm 0.00 W/m2
02:54 60.0 °F /  15.6 °C 55.0 °F /  12.8 °C 29.9in /  1012.4hPa West 3mph /  4.8km/h 3mph /  4.8km/h 86% 0.000in /  0mm 0.00 W/m2
02:59 60.0 °F /  15.6 °C 56.0 °F /  13.3 °C 29.9in /  1012.4hPa WSW 4mph /  6.4km/h 5mph /  8km/h 87% 0.000in /  0mm 0.00 W/m2
03:04 60.0 °F /  15.6 °C 56.0 °F /  13.3 °C 29.9in /  1012.4hPa West 5mph /  8km/h 5mph /  8km/h 87% 0.000in /  0mm 0.00 W/m2
03:09 60.0 °F /  15.6 °C 56.0 °F /  13.3 °C 29.9in /  1012.4hPa WSW 8mph /  12.9km/h 8mph /  12.9km/h 87% 0.000in /  0mm 0.00 W/m2
03:14 60.0 °F /  15.6 °C 57.0 °F /  13.9 °C 29.9in /  1012.4hPa WSW 9mph /  14.5km/h 9mph /  14.5km/h 87% 0.000in /  0mm 0.00 W/m2
03:19 60.0 °F /  15.6 °C 57.0 °F /  13.9 °C 29.9in /  1012.4hPa WSW 12mph /  19.3km/h 12mph /  19.3km/h 87% 0.000in /  0mm 0.00 W/m2
03:24 61.0 °F /  16.1 °C 57.0 °F /  13.9 °C 29.9in /  1012.4hPa West 9mph /  14.5km/h 12mph /  19.3km/h 87% 0.000in /  0mm 0.00 W/m2
03:29 61.0 °F /  16.1 °C 57.0 °F /  13.9 °C 29.9in /  1012.4hPa West 9mph /  14.5km/h 10mph /  16.1km/h 87% 0.000in /  0mm 0.00 W/m2
03:34 61.0 °F /  16.1 °C 57.0 °F /  13.9 °C 29.9in /  1012.4hPa WSW 7mph /  11.3km/h 10mph /  16.1km/h 87% 0.000in /  0mm 0.00 W/m2
03:39 61.0 °F /  16.1 °C 57.0 °F /  13.9 °C 29.9in /  1012.4hPa WSW 10mph /  16.1km/h 10mph /  16.1km/h 87% 0.000in /  0mm 0.00 W/m2
03:44 61.0 °F /  16.1 °C 57.0 °F /  13.9 °C 29.9in /  1012.4hPa West 7mph /  11.3km/h 8mph /  12.9km/h 88% 0.000in /  0mm 0.00 W/m2
03:49 61.0 °F /  16.1 °C 57.0 °F /  13.9 °C 29.9in /  1012.4hPa WSW 9mph /  14.5km/h 10mph /  16.1km/h 87% 0.000in /  0mm 0.00 W/m2
03:54 61.0 °F /  16.1 °C 57.0 °F /  13.9 °C 29.9in /  1012.4hPa WSW 9mph /  14.5km/h 9mph /  14.5km/h 87% 0.000in /  0mm 0.00 W/m2
03:59 61.0 °F /  16.1 °C 57.0 °F /  13.9 °C 29.9in /  1012.4hPa WNW 11mph /  17.7km/h 11mph /  17.7km/h 87% 0.000in /  0mm 0.00 W/m2
04:04 61.0 °F /  16.1 °C 57.0 °F /  13.9 °C 29.9in /  1012.4hPa WNW 11mph /  17.7km/h 11mph /  17.7km/h 87% 0.000in /  0mm 0.00 W/m2
04:09 60.0 °F /  15.6 °C 57.0 °F /  13.9 °C 29.9in /  1012.4hPa WSW 5mph /  8km/h 11mph /  17.7km/h 88% 0.000in /  0mm 0.00 W/m2
04:14 60.0 °F /  15.6 °C 57.0 °F /  13.9 °C 29.9in /  1012.4hPa West 11mph /  17.7km/h 11mph /  17.7km/h 87% 0.000in /  0mm 0.00 W/m2
04:19 60.0 °F /  15.6 °C 57.0 °F /  13.9 °C 29.9in /  1012.4hPa WNW 13mph /  20.9km/h 13mph /  20.9km/h 87% 0.000in /  0mm 0.00 W/m2
04:24 60.0 °F /  15.6 °C 56.0 °F /  13.3 °C 29.9in /  1012.4hPa NW 18mph /  29km/h 21mph /  33.8km/h 87% 0.000in /  0mm 0.00 W/m2
04:29 60.0 °F /  15.6 °C 55.0 °F /  12.8 °C 29.9in /  1012.4hPa WNW 18mph /  29km/h 21mph /  33.8km/h 86% 0.000in /  0mm 0.00 W/m2
04:34 59.0 °F /  15 °C 53.0 °F /  11.7 °C 29.9in /  1012.4hPa NW 12mph /  19.3km/h 14mph /  22.5km/h 82% 0.000in /  0mm 0.00 W/m2
04:39 59.0 °F /  15 °C 51.0 °F /  10.6 °C 29.9in /  1012.4hPa NW 15mph /  24.1km/h 15mph /  24.1km/h 77% 0.000in /  0mm 0.00 W/m2
04:44 59.0 °F /  15 °C 49.0 °F /  9.4 °C 29.9in /  1012.4hPa WNW 10mph /  16.1km/h 12mph /  19.3km/h 71% 0.000in /  0mm 0.00 W/m2
04:49 58.0 °F /  14.4 °C 47.0 °F /  8.3 °C 29.9in /  1012.4hPa NW 22mph /  35.4km/h 24mph /  38.6km/h 65% 0.000in /  0mm 0.00 W/m2
04:54 58.0 °F /  14.4 °C 44.0 °F /  6.7 °C 29.9in /  1012.4hPa NW 23mph /  37km/h 26mph /  41.8km/h 60% 0.000in /  0mm 0.00 W/m2
04:59 58.0 °F /  14.4 °C 42.0 °F /  5.6 °C 29.9in /  1012.4hPa NW 17mph /  27.4km/h 23mph /  37km/h 58% 0.000in /  0mm 0.00 W/m2
05:04 57.0 °F /  13.9 °C 42.0 °F /  5.6 °C 29.9in /  1012.4hPa NW 27mph /  43.5km/h 27mph /  43.5km/h 58% 0.000in /  0mm 0.00 W/m2
05:09 57.0 °F /  13.9 °C 42.0 °F /  5.6 °C 29.9in /  1012.4hPa NW 23mph /  37km/h 27mph /  43.5km/h 58% 0.000in /  0mm 0.00 W/m2
05:14 56.0 °F /  13.3 °C 41.0 °F /  5 °C 29.9in /  1012.4hPa NW 23mph /  37km/h 23mph /  37km/h 58% 0.000in /  0mm 0.00 W/m2
05:19 55.0 °F /  12.8 °C 41.0 °F /  5 °C 30.0in /  1015.8hPa NW 20mph /  32.2km/h 23mph /  37km/h 59% 0.000in /  0mm 0.00 W/m2
05:24 55.0 °F /  12.8 °C 41.0 °F /  5 °C 30.0in /  1015.8hPa NW 20mph /  32.2km/h 23mph /  37km/h 60% 0.000in /  0mm 0.00 W/m2
05:29 55.0 °F /  12.8 °C 41.0 °F /  5 °C 30.0in /  1015.8hPa NW 20mph /  32.2km/h 23mph /  37km/h 60% 0.000in /  0mm 0.00 W/m2
05:34 54.0 °F /  12.2 °C 41.0 °F /  5 °C 30.0in /  1015.8hPa WNW 20mph /  32.2km/h 20mph /  32.2km/h 60% 0.000in /  0mm 0.00 W/m2
05:39 54.0 °F /  12.2 °C 41.0 °F /  5 °C 30.0in /  1015.8hPa NW 19mph /  30.6km/h 19mph /  30.6km/h 60% 0.000in /  0mm 0.00 W/m2
05:44 54.0 °F /  12.2 °C 40.0 °F /  4.4 °C 30.0in /  1015.8hPa NW 16mph /  25.7km/h 19mph /  30.6km/h 60% 0.000in /  0mm 0.00 W/m2
05:49 53.0 °F /  11.7 °C 40.0 °F /  4.4 °C 30.0in /  1015.8hPa NW 18mph /  29km/h 20mph /  32.2km/h 61% 0.000in /  0mm 0.00 W/m2
05:54 53.0 °F /  11.7 °C 40.0 °F /  4.4 °C 30.0in /  1015.8hPa NW 21mph /  33.8km/h 21mph /  33.8km/h 61% 0.000in /  0mm 0.00 W/m2
05:59 52.0 °F /  11.1 °C 39.0 °F /  3.9 °C 30.0in /  1015.8hPa NW 18mph /  29km/h 21mph /  33.8km/h 61% 0.000in /  0mm 0.00 W/m2
06:04 52.0 °F /  11.1 °C 39.0 °F /  3.9 °C 30.0in /  1015.8hPa NW 24mph /  38.6km/h 24mph /  38.6km/h 61% 0.000in /  0mm 0.00 W/m2
06:09 52.0 °F /  11.1 °C 39.0 °F /  3.9 °C 30.0in /  1015.8hPa NW 23mph /  37km/h 27mph /  43.5km/h 61% 0.000in /  0mm 0.00 W/m2
06:14 52.0 °F /  11.1 °C 39.0 °F /  3.9 °C 30.0in /  1015.8hPa NNW 18mph /  29km/h 21mph /  33.8km/h 62% 0.000in /  0mm 0.00 W/m2
06:19 51.0 °F /  10.6 °C 39.0 °F /  3.9 °C 30.0in /  1015.8hPa NW 18mph /  29km/h 19mph /  30.6km/h 62% 0.000in /  0mm 0.00 W/m2
06:24 51.0 °F /  10.6 °C 39.0 °F /  3.9 °C 30.0in /  1015.8hPa NW 18mph /  29km/h 20mph /  32.2km/h 62% 0.000in /  0mm 0.00 W/m2
06:29 51.0 °F /  10.6 °C 38.0 °F /  3.3 °C 30.0in /  1015.8hPa NW 19mph /  30.6km/h 19mph /  30.6km/h 62% 0.000in /  0mm 0.00 W/m2
06:34 51.0 °F /  10.6 °C 38.0 °F /  3.3 °C 30.0in /  1015.8hPa NW 16mph /  25.7km/h 18mph /  29km/h 63% 0.000in /  0mm 0.00 W/m2
06:39 50.0 °F /  10 °C 38.0 °F /  3.3 °C 30.0in /  1015.8hPa NW 18mph /  29km/h 19mph /  30.6km/h 63% 0.000in /  0mm 0.00 W/m2
06:44 50.0 °F /  10 °C 38.0 °F /  3.3 °C 30.0in /  1015.8hPa NW 15mph /  24.1km/h 19mph /  30.6km/h 63% 0.000in /  0mm 0.00 W/m2
06:49 50.0 °F /  10 °C 38.0 °F /  3.3 °C 30.0in /  1015.8hPa NW 17mph /  27.4km/h 17mph /  27.4km/h 64% 0.000in /  0mm 0.00 W/m2
06:54 50.0 °F /  10 °C 38.0 °F /  3.3 °C 30.0in /  1015.8hPa NW 27mph /  43.5km/h 27mph /  43.5km/h 64% 0.000in /  0mm 0.00 W/m2
06:59 50.0 °F /  10 °C 38.0 °F /  3.3 °C 30.0in /  1015.8hPa NW 26mph /  41.8km/h 27mph /  43.5km/h 64% 0.000in /  0mm 0.00 W/m2
07:04 49.0 °F /  9.4 °C 38.0 °F /  3.3 °C 30.0in /  1015.8hPa NNW 15mph /  24.1km/h 26mph /  41.8km/h 64% 0.000in /  0mm 0.00 W/m2
07:09 49.0 °F /  9.4 °C 37.0 °F /  2.8 °C 30.0in /  1015.8hPa NW 23mph /  37km/h 23mph /  37km/h 64% 0.000in /  0mm 0.00 W/m2
07:14 49.0 °F /  9.4 °C 37.0 °F /  2.8 °C 30.0in /  1015.8hPa NW 17mph /  27.4km/h 17mph /  27.4km/h 64% 0.000in /  0mm 0.00 W/m2
07:19 49.0 °F /  9.4 °C 38.0 °F /  3.3 °C 30.1in /  1019.2hPa NW 20mph /  32.2km/h 21mph /  33.8km/h 65% 0.000in /  0mm 0.00 W/m2
07:24 49.0 °F /  9.4 °C 38.0 °F /  3.3 °C 30.1in /  1019.2hPa NW 18mph /  29km/h 24mph /  38.6km/h 65% 0.000in /  0mm 0.00 W/m2
07:29 49.0 °F /  9.4 °C 37.0 °F /  2.8 °C 30.0in /  1015.8hPa NW 24mph /  38.6km/h 26mph /  41.8km/h 64% 0.000in /  0mm 0.00 W/m2
07:34 48.0 °F /  8.9 °C 37.0 °F /  2.8 °C 30.0in /  1015.8hPa NW 22mph /  35.4km/h 24mph /  38.6km/h 64% 0.000in /  0mm 0.00 W/m2
07:39 48.0 °F /  8.9 °C 37.0 °F /  2.8 °C 30.0in /  1015.8hPa NW 24mph /  38.6km/h 24mph /  38.6km/h 64% 0.000in /  0mm 11.00 W/m2
07:44 48.0 °F /  8.9 °C 36.0 °F /  2.2 °C 30.0in /  1015.8hPa NW 24mph /  38.6km/h 27mph /  43.5km/h 64% 0.000in /  0mm 14.00 W/m2
07:49 48.0 °F /  8.9 °C 36.0 °F /  2.2 °C 30.1in /  1019.2hPa NNW 21mph /  33.8km/h 27mph /  43.5km/h 64% 0.000in /  0mm 23.00 W/m2
07:54 48.0 °F /  8.9 °C 36.0 °F /  2.2 °C 30.1in /  1019.2hPa NW 17mph /  27.4km/h 17mph /  27.4km/h 64% 0.000in /  0mm 25.00 W/m2
07:59 47.0 °F /  8.3 °C 36.0 °F /  2.2 °C 30.0in /  1015.8hPa NW 19mph /  30.6km/h 19mph /  30.6km/h 64% 0.000in /  0mm 25.00 W/m2
08:04 47.0 °F /  8.3 °C 35.0 °F /  1.7 °C 30.1in /  1019.2hPa NW 17mph /  27.4km/h 24mph /  38.6km/h 64% 0.000in /  0mm 23.00 W/m2
08:09 47.0 °F /  8.3 °C 35.0 °F /  1.7 °C 30.1in /  1019.2hPa NW 18mph /  29km/h 19mph /  30.6km/h 64% 0.000in /  0mm 19.00 W/m2
08:14 47.0 °F /  8.3 °C 35.0 °F /  1.7 °C 30.1in /  1019.2hPa NW 21mph /  33.8km/h 26mph /  41.8km/h 64% 0.000in /  0mm 19.00 W/m2
08:19 47.0 °F /  8.3 °C 35.0 °F /  1.7 °C 30.1in /  1019.2hPa NW 16mph /  25.7km/h 20mph /  32.2km/h 64% 0.000in /  0mm 19.00 W/m2
08:24 46.0 °F /  7.8 °C 35.0 °F /  1.7 °C 30.1in /  1019.2hPa NW 22mph /  35.4km/h 22mph /  35.4km/h 64% 0.000in /  0mm 21.00 W/m2
08:29 46.0 °F /  7.8 °C 34.0 °F /  1.1 °C 30.1in /  1019.2hPa NW 16mph /  25.7km/h 23mph /  37km/h 63% 0.000in /  0mm 30.00 W/m2
08:34 46.0 °F /  7.8 °C 34.0 °F /  1.1 °C 30.1in /  1019.2hPa NW 19mph /  30.6km/h 23mph /  37km/h 63% 0.000in /  0mm 39.00 W/m2
08:39 46.0 °F /  7.8 °C 34.0 °F /  1.1 °C 30.1in /  1019.2hPa NW 15mph /  24.1km/h 16mph /  25.7km/h 63% 0.000in /  0mm 46.00 W/m2
08:44 46.0 °F /  7.8 °C 34.0 °F /  1.1 °C 30.1in /  1019.2hPa NW 16mph /  25.7km/h 19mph /  30.6km/h 63% 0.000in /  0mm 63.00 W/m2
08:49 46.0 °F /  7.8 °C 34.0 °F /  1.1 °C 30.1in /  1019.2hPa NW 16mph /  25.7km/h 19mph /  30.6km/h 62% 0.000in /  0mm 91.00 W/m2
08:54 46.0 °F /  7.8 °C 33.0 °F /  0.6 °C 30.1in /  1019.2hPa NW 20mph /  32.2km/h 20mph /  32.2km/h 61% 0.000in /  0mm 100.00 W/m2
08:59 46.0 °F /  7.8 °C 33.0 °F /  0.6 °C 30.1in /  1019.2hPa NW 20mph /  32.2km/h 20mph /  32.2km/h 61% 0.000in /  0mm 95.00 W/m2
09:04 46.0 °F /  7.8 °C 33.0 °F /  0.6 °C 30.1in /  1019.2hPa NW 19mph /  30.6km/h 24mph /  38.6km/h 60% 0.000in /  0mm 91.00 W/m2
09:09 46.0 °F /  7.8 °C 33.0 °F /  0.6 °C 30.1in /  1019.2hPa NW 18mph /  29km/h 20mph /  32.2km/h 60% 0.000in /  0mm 81.00 W/m2
09:14 46.0 °F /  7.8 °C 33.0 °F /  0.6 °C 30.1in /  1019.2hPa NW 15mph /  24.1km/h 21mph /  33.8km/h 59% 0.000in /  0mm 97.00 W/m2
09:19 46.0 °F /  7.8 °C 32.0 °F /  0 °C 30.1in /  1019.2hPa NW 20mph /  32.2km/h 21mph /  33.8km/h 59% 0.000in /  0mm 116.00 W/m2
09:24 46.0 °F /  7.8 °C 32.0 °F /  0 °C 30.1in /  1019.2hPa NW 20mph /  32.2km/h 24mph /  38.6km/h 59% 0.000in /  0mm 125.00 W/m2
09:29 46.0 °F /  7.8 °C 32.0 °F /  0 °C 30.1in /  1019.2hPa NW 25mph /  40.2km/h 25mph /  40.2km/h 58% 0.000in /  0mm 120.00 W/m2
09:34 46.0 °F /  7.8 °C 32.0 °F /  0 °C 30.1in /  1019.2hPa NW 17mph /  27.4km/h 19mph /  30.6km/h 58% 0.000in /  0mm 144.00 W/m2
09:39 46.0 °F /  7.8 °C 32.0 °F /  0 °C 30.1in /  1019.2hPa NW 16mph /  25.7km/h 17mph /  27.4km/h 58% 0.000in /  0mm 176.00 W/m2
09:44 46.0 °F /  7.8 °C 32.0 °F /  0 °C 30.1in /  1019.2hPa NW 23mph /  37km/h 23mph /  37km/h 58% 0.000in /  0mm 181.00 W/m2
09:49 46.0 °F /  7.8 °C 32.0 °F /  0 °C 30.1in /  1019.2hPa NW 21mph /  33.8km/h 23mph /  37km/h 57% 0.000in /  0mm 171.00 W/m2
09:54 46.0 °F /  7.8 °C 32.0 °F /  0 °C 30.1in /  1019.2hPa NW 23mph /  37km/h 23mph /  37km/h 57% 0.000in /  0mm 281.00 W/m2
09:59 47.0 °F /  8.3 °C 32.0 °F /  0 °C 30.1in /  1019.2hPa NW 20mph /  32.2km/h 23mph /  37km/h 57% 0.000in /  0mm 373.00 W/m2
10:04 47.0 °F /  8.3 °C 32.0 °F /  0 °C 30.1in /  1019.2hPa NW 19mph /  30.6km/h 24mph /  38.6km/h 57% 0.000in /  0mm 250.00 W/m2
10:09 47.0 °F /  8.3 °C 32.0 °F /  0 °C 30.1in /  1019.2hPa NW 19mph /  30.6km/h 21mph /  33.8km/h 56% 0.000in /  0mm 302.00 W/m2
10:14 47.0 °F /  8.3 °C 32.0 °F /  0 °C 30.1in /  1019.2hPa NW 27mph /  43.5km/h 28mph /  45.1km/h 56% 0.000in /  0mm 237.00 W/m2
10:19 47.0 °F /  8.3 °C 32.0 °F /  0 °C 30.1in /  1019.2hPa NNW 24mph /  38.6km/h 25mph /  40.2km/h 56% 0.000in /  0mm 323.00 W/m2
10:24 48.0 °F /  8.9 °C 33.0 °F /  0.6 °C 30.1in /  1019.2hPa NW 22mph /  35.4km/h 23mph /  37km/h 56% 0.000in /  0mm 323.00 W/m2
10:29 48.0 °F /  8.9 °C 33.0 °F /  0.6 °C 30.1in /  1019.2hPa NNW 13mph /  20.9km/h 23mph /  37km/h 56% 0.000in /  0mm 492.00 W/m2
10:34 49.0 °F /  9.4 °C 33.0 °F /  0.6 °C 30.1in /  1019.2hPa NW 22mph /  35.4km/h 26mph /  41.8km/h 55% 0.000in /  0mm 559.00 W/m2
10:39 49.0 °F /  9.4 °C 33.0 °F /  0.6 °C 30.1in /  1019.2hPa NW 24mph /  38.6km/h 24mph /  38.6km/h 54% 0.000in /  0mm 262.00 W/m2
10:44 48.0 °F /  8.9 °C 33.0 °F /  0.6 °C 30.1in /  1019.2hPa NW 21mph /  33.8km/h 21mph /  33.8km/h 55% 0.000in /  0mm 345.00 W/m2
10:49 48.0 °F /  8.9 °C 33.0 °F /  0.6 °C 30.1in /  1019.2hPa NW 22mph /  35.4km/h 22mph /  35.4km/h 55% 0.000in /  0mm 345.00 W/m2
10:54 48.0 °F /  8.9 °C 33.0 °F /  0.6 °C 30.1in /  1019.2hPa NW 18mph /  29km/h 22mph /  35.4km/h 56% 0.000in /  0mm 322.00 W/m2
10:59 48.0 °F /  8.9 °C 33.0 °F /  0.6 °C 30.1in /  1019.2hPa NW 17mph /  27.4km/h 18mph /  29km/h 57% 0.000in /  0mm 325.00 W/m2
11:04 48.0 °F /  8.9 °C 33.0 °F /  0.6 °C 30.1in /  1019.2hPa NW 25mph /  40.2km/h 25mph /  40.2km/h 56% 0.000in /  0mm 214.00 W/m2
11:09 48.0 °F /  8.9 °C 32.0 °F /  0 °C 30.1in /  1019.2hPa NW 21mph /  33.8km/h 24mph /  38.6km/h 54% 0.000in /  0mm 220.00 W/m2
11:14 47.0 °F /  8.3 °C 32.0 °F /  0 °C 30.1in /  1019.2hPa NW 18mph /  29km/h 18mph /  29km/h 55% 0.000in /  0mm 264.00 W/m2
11:19 48.0 °F /  8.9 °C 32.0 °F /  0 °C 30.1in /  1019.2hPa NW 23mph /  37km/h 26mph /  41.8km/h 55% 0.000in /  0mm 687.00 W/m2
11:24 48.0 °F /  8.9 °C 31.0 °F /  -0.6 °C 30.1in /  1019.2hPa WNW 21mph /  33.8km/h 23mph /  37km/h 53% 0.000in /  0mm 656.00 W/m2
11:29 48.0 °F /  8.9 °C 31.0 °F /  -0.6 °C 30.1in /  1019.2hPa WNW 21mph /  33.8km/h 21mph /  33.8km/h 52% 0.000in /  0mm 642.00 W/m2
11:34 48.0 °F /  8.9 °C 30.0 °F /  -1.1 °C 30.1in /  1019.2hPa WNW 23mph /  37km/h 24mph /  38.6km/h 50% 0.000in /  0mm 705.00 W/m2
11:39 48.0 °F /  8.9 °C 29.0 °F /  -1.7 °C 30.1in /  1019.2hPa NW 30mph /  48.3km/h 30mph /  48.3km/h 48% 0.000in /  0mm 714.00 W/m2
11:44 48.0 °F /  8.9 °C 29.0 °F /  -1.7 °C 30.1in /  1019.2hPa WNW 21mph /  33.8km/h 21mph /  33.8km/h 48% 0.000in /  0mm 647.00 W/m2
11:49 48.0 °F /  8.9 °C 29.0 °F /  -1.7 °C 30.1in /  1019.2hPa NW 20mph /  32.2km/h 22mph /  35.4km/h 48% 0.000in /  0mm 719.00 W/m2
11:54 48.0 °F /  8.9 °C 29.0 °F /  -1.7 °C 30.1in /  1019.2hPa NW 21mph /  33.8km/h 23mph /  37km/h 48% 0.000in /  0mm 668.00 W/m2
11:59 48.0 °F /  8.9 °C 29.0 °F /  -1.7 °C 30.1in /  1019.2hPa NNW 25mph /  40.2km/h 30mph /  48.3km/h 47% 0.000in /  0mm 661.00 W/m2
12:04 48.0 °F /  8.9 °C 29.0 °F /  -1.7 °C 30.1in /  1019.2hPa NW 20mph /  32.2km/h 25mph /  40.2km/h 48% 0.000in /  0mm 663.00 W/m2
12:09 48.0 °F /  8.9 °C 28.0 °F /  -2.2 °C 30.1in /  1019.2hPa NW 29mph /  46.7km/h 30mph /  48.3km/h 46% 0.010in /  0.25mm 638.00 W/m2
12:14 48.0 °F /  8.9 °C 28.0 °F /  -2.2 °C 30.1in /  1019.2hPa NW 24mph /  38.6km/h 30mph /  48.3km/h 46% 0.010in /  0.25mm 673.00 W/m2
12:19 48.0 °F /  8.9 °C 28.0 °F /  -2.2 °C 30.1in /  1019.2hPa NNW 24mph /  38.6km/h 24mph /  38.6km/h 46% 0.010in /  0.25mm 577.00 W/m2
12:24 48.0 °F /  8.9 °C 29.0 °F /  -1.7 °C 30.1in /  1019.2hPa NNW 20mph /  32.2km/h 26mph /  41.8km/h 48% 0.010in /  0.25mm 698.00 W/m2
12:29 48.0 °F /  8.9 °C 29.0 °F /  -1.7 °C 30.1in /  1019.2hPa WNW 19mph /  30.6km/h 20mph /  32.2km/h 47% 0.010in /  0.25mm 698.00 W/m2
12:34 49.0 °F /  9.4 °C 30.0 °F /  -1.1 °C 30.1in /  1019.2hPa NW 20mph /  32.2km/h 22mph /  35.4km/h 47% 0.010in /  0.25mm 682.00 W/m2
12:39 49.0 °F /  9.4 °C 30.0 °F /  -1.1 °C 30.1in /  1019.2hPa NW 23mph /  37km/h 23mph /  37km/h 47% 0.010in /  0.25mm 673.00 W/m2
12:44 49.0 °F /  9.4 °C 29.0 °F /  -1.7 °C 30.1in /  1019.2hPa NW 17mph /  27.4km/h 23mph /  37km/h 46% 0.010in /  0.25mm 670.00 W/m2
12:49 49.0 °F /  9.4 °C 29.0 °F /  -1.7 °C 30.1in /  1019.2hPa NW 21mph /  33.8km/h 21mph /  33.8km/h 46% 0.010in /  0.25mm 659.00 W/m2
12:54 49.0 °F /  9.4 °C 29.0 °F /  -1.7 °C 30.1in /  1019.2hPa NW 24mph /  38.6km/h 24mph /  38.6km/h 46% 0.010in /  0.25mm 494.00 W/m2
12:59 49.0 °F /  9.4 °C 29.0 °F /  -1.7 °C 30.1in /  1019.2hPa NW 22mph /  35.4km/h 22mph /  35.4km/h 46% 0.010in /  0.25mm 671.00 W/m2
13:04 50.0 °F /  10 °C 29.0 °F /  -1.7 °C 30.1in /  1019.2hPa NW 16mph /  25.7km/h 23mph /  37km/h 45% 0.010in /  0.25mm 671.00 W/m2
13:09 50.0 °F /  10 °C 29.0 °F /  -1.7 °C 30.1in /  1019.2hPa NW 24mph /  38.6km/h 24mph /  38.6km/h 45% 0.010in /  0.25mm 668.00 W/m2
13:14 49.0 °F /  9.4 °C 28.0 °F /  -2.2 °C 30.1in /  1019.2hPa NW 22mph /  35.4km/h 24mph /  38.6km/h 44% 0.000in /  0mm 668.00 W/m2
13:19 49.0 °F /  9.4 °C 28.0 °F /  -2.2 °C 30.1in /  1019.2hPa NW 24mph /  38.6km/h 25mph /  40.2km/h 44% 0.000in /  0mm 664.00 W/m2
13:24 49.0 °F /  9.4 °C 28.0 °F /  -2.2 °C 30.1in /  1019.2hPa NW 22mph /  35.4km/h 25mph /  40.2km/h 44% 0.000in /  0mm 657.00 W/m2
13:29 49.0 °F /  9.4 °C 28.0 °F /  -2.2 °C 30.1in /  1019.2hPa NW 30mph /  48.3km/h 30mph /  48.3km/h 44% 0.000in /  0mm 656.00 W/m2
13:34 49.0 °F /  9.4 °C 27.0 °F /  -2.8 °C 30.1in /  1019.2hPa NNW 27mph /  43.5km/h 28mph /  45.1km/h 43% 0.000in /  0mm 650.00 W/m2
13:39 49.0 °F /  9.4 °C 27.0 °F /  -2.8 °C 30.1in /  1019.2hPa NNW 23mph /  37km/h 24mph /  38.6km/h 43% 0.000in /  0mm 643.00 W/m2
13:44 49.0 °F /  9.4 °C 28.0 °F /  -2.2 °C 30.1in /  1019.2hPa NW 23mph /  37km/h 24mph /  38.6km/h 43% 0.000in /  0mm 643.00 W/m2
13:49 49.0 °F /  9.4 °C 28.0 °F /  -2.2 °C 30.1in /  1019.2hPa NNW 29mph /  46.7km/h 29mph /  46.7km/h 43% 0.000in /  0mm 636.00 W/m2
13:54 49.0 °F /  9.4 °C 28.0 °F /  -2.2 °C 30.1in /  1019.2hPa NW 20mph /  32.2km/h 29mph /  46.7km/h 43% 0.000in /  0mm 633.00 W/m2
13:59 50.0 °F /  10 °C 28.0 °F /  -2.2 °C 30.1in /  1019.2hPa NW 22mph /  35.4km/h 22mph /  35.4km/h 43% 0.000in /  0mm 624.00 W/m2
14:04 50.0 °F /  10 °C 28.0 °F /  -2.2 °C 30.1in /  1019.2hPa NW 20mph /  32.2km/h 28mph /  45.1km/h 43% 0.000in /  0mm 621.00 W/m2
14:09 49.0 °F /  9.4 °C 27.0 °F /  -2.8 °C 30.1in /  1019.2hPa NW 22mph /  35.4km/h 28mph /  45.1km/h 42% 0.000in /  0mm 608.00 W/m2
14:14 49.0 °F /  9.4 °C 28.0 °F /  -2.2 °C 30.1in /  1019.2hPa NW 20mph /  32.2km/h 20mph /  32.2km/h 43% 0.000in /  0mm 598.00 W/m2
14:19 50.0 °F /  10 °C 27.0 °F /  -2.8 °C 30.1in /  1019.2hPa NW 18mph /  29km/h 21mph /  33.8km/h 42% 0.000in /  0mm 589.00 W/m2
14:24 50.0 °F /  10 °C 28.0 °F /  -2.2 °C 30.1in /  1019.2hPa NW 21mph /  33.8km/h 21mph /  33.8km/h 42% 0.000in /  0mm 578.00 W/m2
14:29 50.0 °F /  10 °C 28.0 °F /  -2.2 °C 30.1in /  1019.2hPa NW 23mph /  37km/h 23mph /  37km/h 42% 0.000in /  0mm 568.00 W/m2
14:34 50.0 °F /  10 °C 28.0 °F /  -2.2 °C 30.1in /  1019.2hPa NW 19mph /  30.6km/h 20mph /  32.2km/h 42% 0.000in /  0mm 561.00 W/m2
14:39 50.0 °F /  10 °C 27.0 °F /  -2.8 °C 30.1in /  1019.2hPa NW 19mph /  30.6km/h 21mph /  33.8km/h 42% 0.000in /  0mm 548.00 W/m2
14:44 50.0 °F /  10 °C 28.0 °F /  -2.2 °C 30.1in /  1019.2hPa NW 23mph /  37km/h 23mph /  37km/h 43% 0.000in /  0mm 536.00 W/m2
14:49 50.0 °F /  10 °C 28.0 °F /  -2.2 °C 30.1in /  1019.2hPa WNW 20mph /  32.2km/h 20mph /  32.2km/h 43% 0.000in /  0mm 524.00 W/m2
14:54 50.0 °F /  10 °C 27.0 °F /  -2.8 °C 30.1in /  1019.2hPa NW 21mph /  33.8km/h 23mph /  37km/h 41% 0.000in /  0mm 504.00 W/m2
14:59 49.0 °F /  9.4 °C 26.0 °F /  -3.3 °C 30.1in /  1019.2hPa NW 22mph /  35.4km/h 22mph /  35.4km/h 41% 0.000in /  0mm 499.00 W/m2
15:04 49.0 °F /  9.4 °C 27.0 °F /  -2.8 °C 30.1in /  1019.2hPa NW 14mph /  22.5km/h 19mph /  30.6km/h 42% 0.000in /  0mm 492.00 W/m2
15:09 49.0 °F /  9.4 °C 27.0 °F /  -2.8 °C 30.1in /  1019.2hPa NW 17mph /  27.4km/h 18mph /  29km/h 42% 0.000in /  0mm 473.00 W/m2
15:14 49.0 °F /  9.4 °C 27.0 °F /  -2.8 °C 30.1in /  1019.2hPa NNW 22mph /  35.4km/h 26mph /  41.8km/h 42% 0.000in /  0mm 461.00 W/m2
15:19 49.0 °F /  9.4 °C 26.0 °F /  -3.3 °C 30.1in /  1019.2hPa NNW 20mph /  32.2km/h 22mph /  35.4km/h 42% 0.000in /  0mm 441.00 W/m2
15:24 49.0 °F /  9.4 °C 26.0 °F /  -3.3 °C 30.1in /  1019.2hPa NNW 20mph /  32.2km/h 29mph /  46.7km/h 42% 0.000in /  0mm 432.00 W/m2
15:29 49.0 °F /  9.4 °C 26.0 °F /  -3.3 °C 30.1in /  1019.2hPa NW 24mph /  38.6km/h 32mph /  51.5km/h 41% 0.000in /  0mm 410.00 W/m2
15:34 48.0 °F /  8.9 °C 26.0 °F /  -3.3 °C 30.1in /  1019.2hPa NW 25mph /  40.2km/h 25mph /  40.2km/h 41% 0.000in /  0mm 403.00 W/m2
15:39 48.0 °F /  8.9 °C 25.0 °F /  -3.9 °C 30.1in /  1019.2hPa NW 23mph /  37km/h 25mph /  40.2km/h 41% 0.000in /  0mm 387.00 W/m2
15:44 48.0 °F /  8.9 °C 26.0 °F /  -3.3 °C 30.1in /  1019.2hPa NW 18mph /  29km/h 18mph /  29km/h 42% 0.000in /  0mm 369.00 W/m2
15:49 48.0 °F /  8.9 °C 26.0 °F /  -3.3 °C 30.1in /  1019.2hPa NW 15mph /  24.1km/h 18mph /  29km/h 42% 0.000in /  0mm 352.00 W/m2
15:54 48.0 °F /  8.9 °C 26.0 °F /  -3.3 °C 30.1in /  1019.2hPa NW 23mph /  37km/h 23mph /  37km/h 42% 0.000in /  0mm 341.00 W/m2
15:59 48.0 °F /  8.9 °C 26.0 °F /  -3.3 °C 30.1in /  1019.2hPa NW 16mph /  25.7km/h 20mph /  32.2km/h 42% 0.000in /  0mm 325.00 W/m2
16:04 48.0 °F /  8.9 °C 26.0 °F /  -3.3 °C 30.1in /  1019.2hPa NW 25mph /  40.2km/h 29mph /  46.7km/h 42% 0.000in /  0mm 309.00 W/m2
16:09 48.0 °F /  8.9 °C 26.0 °F /  -3.3 °C 30.1in /  1019.2hPa NW 24mph /  38.6km/h 25mph /  40.2km/h 42% 0.000in /  0mm 295.00 W/m2
16:14 47.0 °F /  8.3 °C 25.0 °F /  -3.9 °C 30.1in /  1019.2hPa NW 24mph /  38.6km/h 25mph /  40.2km/h 42% 0.000in /  0mm 278.00 W/m2
16:19 47.0 °F /  8.3 °C 25.0 °F /  -3.9 °C 30.1in /  1019.2hPa NNW 20mph /  32.2km/h 22mph /  35.4km/h 42% 0.000in /  0mm 230.00 W/m2
16:24 47.0 °F /  8.3 °C 25.0 °F /  -3.9 °C 30.1in /  1019.2hPa NW 27mph /  43.5km/h 27mph /  43.5km/h 42% 0.000in /  0mm 121.00 W/m2
16:29 47.0 °F /  8.3 °C 25.0 °F /  -3.9 °C 30.1in /  1019.2hPa NW 14mph /  22.5km/h 21mph /  33.8km/h 42% 0.000in /  0mm 72.00 W/m2
16:34 47.0 °F /  8.3 °C 25.0 °F /  -3.9 °C 30.1in /  1019.2hPa WNW 16mph /  25.7km/h 21mph /  33.8km/h 42% 0.000in /  0mm 105.00 W/m2
16:39 47.0 °F /  8.3 °C 25.0 °F /  -3.9 °C 30.1in /  1019.2hPa NW 19mph /  30.6km/h 22mph /  35.4km/h 42% 0.000in /  0mm 65.00 W/m2
16:44 47.0 °F /  8.3 °C 25.0 °F /  -3.9 °C 30.1in /  1019.2hPa NW 32mph /  51.5km/h 32mph /  51.5km/h 42% 0.000in /  0mm 49.00 W/m2
16:49 46.0 °F /  7.8 °C 24.0 °F /  -4.4 °C 30.1in /  1019.2hPa NW 20mph /  32.2km/h 26mph /  41.8km/h 42% 0.000in /  0mm 49.00 W/m2
16:54 46.0 °F /  7.8 °C 24.0 °F /  -4.4 °C 30.1in /  1019.2hPa NW 25mph /  40.2km/h 28mph /  45.1km/h 42% 0.000in /  0mm 35.00 W/m2
16:59 46.0 °F /  7.8 °C 24.0 °F /  -4.4 °C 30.1in /  1019.2hPa NW 21mph /  33.8km/h 27mph /  43.5km/h 42% 0.000in /  0mm 33.00 W/m2
17:04 46.0 °F /  7.8 °C 24.0 °F /  -4.4 °C 30.1in /  1019.2hPa NW 17mph /  27.4km/h 21mph /  33.8km/h 43% 0.000in /  0mm 40.00 W/m2
17:09 46.0 °F /  7.8 °C 24.0 °F /  -4.4 °C 30.1in /  1019.2hPa WNW 15mph /  24.1km/h 18mph /  29km/h 43% 0.000in /  0mm 40.00 W/m2
17:14 46.0 °F /  7.8 °C 24.0 °F /  -4.4 °C 30.1in /  1019.2hPa NW 20mph /  32.2km/h 20mph /  32.2km/h 43% 0.000in /  0mm 30.00 W/m2
17:19 46.0 °F /  7.8 °C 24.0 °F /  -4.4 °C 30.1in /  1019.2hPa NW 20mph /  32.2km/h 21mph /  33.8km/h 43% 0.000in /  0mm 30.00 W/m2
17:24 45.0 °F /  7.2 °C 24.0 °F /  -4.4 °C 30.1in /  1019.2hPa NW 19mph /  30.6km/h 19mph /  30.6km/h 43% 0.000in /  0mm 18.00 W/m2
17:29 45.0 °F /  7.2 °C 24.0 °F /  -4.4 °C 30.1in /  1019.2hPa NW 23mph /  37km/h 23mph /  37km/h 43% 0.000in /  0mm 14.00 W/m2
17:34 45.0 °F /  7.2 °C 24.0 °F /  -4.4 °C 30.1in /  1019.2hPa NW 17mph /  27.4km/h 17mph /  27.4km/h 44% 0.000in /  0mm 12.00 W/m2
17:39 44.0 °F /  6.7 °C 24.0 °F /  -4.4 °C 30.1in /  1019.2hPa NW 15mph /  24.1km/h 21mph /  33.8km/h 44% 0.000in /  0mm 9.00 W/m2
17:44 44.0 °F /  6.7 °C 24.0 °F /  -4.4 °C 30.1in /  1019.2hPa NW 16mph /  25.7km/h 16mph /  25.7km/h 45% 0.000in /  0mm 5.00 W/m2
17:49 44.0 °F /  6.7 °C 24.0 °F /  -4.4 °C 30.1in /  1019.2hPa NW 19mph /  30.6km/h 19mph /  30.6km/h 45% 0.000in /  0mm 0.00 W/m2
17:54 44.0 °F /  6.7 °C 24.0 °F /  -4.4 °C 30.1in /  1019.2hPa NW 17mph /  27.4km/h 19mph /  30.6km/h 45% 0.000in /  0mm 0.00 W/m2
17:59 44.0 °F /  6.7 °C 24.0 °F /  -4.4 °C 30.2in /  1022.6hPa NW 16mph /  25.7km/h 18mph /  29km/h 45% 0.000in /  0mm 0.00 W/m2
18:04 44.0 °F /  6.7 °C 24.0 °F /  -4.4 °C 30.2in /  1022.6hPa NW 14mph /  22.5km/h 16mph /  25.7km/h 45% 0.000in /  0mm 0.00 W/m2
18:09 44.0 °F /  6.7 °C 24.0 °F /  -4.4 °C 30.2in /  1022.6hPa NW 13mph /  20.9km/h 18mph /  29km/h 45% 0.000in /  0mm 0.00 W/m2
18:14 43.0 °F /  6.1 °C 24.0 °F /  -4.4 °C 30.2in /  1022.6hPa NW 11mph /  17.7km/h 14mph /  22.5km/h 46% 0.000in /  0mm 0.00 W/m2
18:19 43.0 °F /  6.1 °C 24.0 °F /  -4.4 °C 30.2in /  1022.6hPa NW 17mph /  27.4km/h 17mph /  27.4km/h 46% 0.000in /  0mm 0.00 W/m2
18:24 43.0 °F /  6.1 °C 24.0 °F /  -4.4 °C 30.2in /  1022.6hPa NW 18mph /  29km/h 18mph /  29km/h 46% 0.000in /  0mm 0.00 W/m2
18:29 43.0 °F /  6.1 °C 24.0 °F /  -4.4 °C 30.2in /  1022.6hPa NW 18mph /  29km/h 18mph /  29km/h 46% 0.000in /  0mm 0.00 W/m2
18:34 43.0 °F /  6.1 °C 23.0 °F /  -5 °C 30.2in /  1022.6hPa NW 12mph /  19.3km/h 12mph /  19.3km/h 46% 0.000in /  0mm 0.00 W/m2
18:39 43.0 °F /  6.1 °C 23.0 °F /  -5 °C 30.2in /  1022.6hPa NW 16mph /  25.7km/h 18mph /  29km/h 46% 0.000in /  0mm 0.00 W/m2
18:44 42.0 °F /  5.6 °C 24.0 °F /  -4.4 °C 30.2in /  1022.6hPa NW 18mph /  29km/h 18mph /  29km/h 47% 0.000in /  0mm 0.00 W/m2
18:49 42.0 °F /  5.6 °C 24.0 °F /  -4.4 °C 30.2in /  1022.6hPa NW 16mph /  25.7km/h 16mph /  25.7km/h 47% 0.000in /  0mm 0.00 W/m2
18:54 42.0 °F /  5.6 °C 24.0 °F /  -4.4 °C 30.2in /  1022.6hPa NW 12mph /  19.3km/h 12mph /  19.3km/h 47% 0.000in /  0mm 0.00 W/m2
18:59 42.0 °F /  5.6 °C 24.0 °F /  -4.4 °C 30.2in /  1022.6hPa NW 16mph /  25.7km/h 16mph /  25.7km/h 48% 0.000in /  0mm 0.00 W/m2
19:04 42.0 °F /  5.6 °C 23.0 °F /  -5 °C 30.2in /  1022.6hPa NW 14mph /  22.5km/h 16mph /  25.7km/h 47% 0.000in /  0mm 0.00 W/m2
19:09 42.0 °F /  5.6 °C 23.0 °F /  -5 °C 30.2in /  1022.6hPa NW 15mph /  24.1km/h 15mph /  24.1km/h 47% 0.000in /  0mm 0.00 W/m2
19:14 42.0 °F /  5.6 °C 23.0 °F /  -5 °C 30.2in /  1022.6hPa NW 13mph /  20.9km/h 15mph /  24.1km/h 47% 0.000in /  0mm 0.00 W/m2
19:19 42.0 °F /  5.6 °C 23.0 °F /  -5 °C 30.2in /  1022.6hPa NW 18mph /  29km/h 18mph /  29km/h 47% 0.000in /  0mm 0.00 W/m2
19:24 42.0 °F /  5.6 °C 24.0 °F /  -4.4 °C 30.2in /  1022.6hPa NW 15mph /  24.1km/h 15mph /  24.1km/h 48% 0.000in /  0mm 0.00 W/m2
19:29 42.0 °F /  5.6 °C 23.0 °F /  -5 °C 30.2in /  1022.6hPa NW 16mph /  25.7km/h 18mph /  29km/h 48% 0.000in /  0mm 0.00 W/m2
19:34 42.0 °F /  5.6 °C 23.0 °F /  -5 °C 30.2in /  1022.6hPa NW 15mph /  24.1km/h 15mph /  24.1km/h 48% 0.000in /  0mm 0.00 W/m2
19:39 41.0 °F /  5 °C 23.0 °F /  -5 °C 30.2in /  1022.6hPa NW 16mph /  25.7km/h 16mph /  25.7km/h 48% 0.000in /  0mm 0.00 W/m2
19:44 41.0 °F /  5 °C 23.0 °F /  -5 °C 30.2in /  1022.6hPa NW 14mph /  22.5km/h 16mph /  25.7km/h 48% 0.000in /  0mm 0.00 W/m2
19:49 41.0 °F /  5 °C 24.0 °F /  -4.4 °C 30.2in /  1022.6hPa NW 18mph /  29km/h 18mph /  29km/h 49% 0.000in /  0mm 0.00 W/m2
19:54 41.0 °F /  5 °C 24.0 °F /  -4.4 °C 30.2in /  1022.6hPa NW 12mph /  19.3km/h 18mph /  29km/h 49% 0.000in /  0mm 0.00 W/m2
19:59 41.0 °F /  5 °C 24.0 °F /  -4.4 °C 30.2in /  1022.6hPa WNW 12mph /  19.3km/h 14mph /  22.5km/h 49% 0.000in /  0mm 0.00 W/m2
20:04 41.0 °F /  5 °C 23.0 °F /  -5 °C 30.2in /  1022.6hPa NW 16mph /  25.7km/h 16mph /  25.7km/h 49% 0.000in /  0mm 0.00 W/m2
20:09 41.0 °F /  5 °C 24.0 °F /  -4.4 °C 30.2in /  1022.6hPa NW 13mph /  20.9km/h 15mph /  24.1km/h 50% 0.000in /  0mm 0.00 W/m2
20:14 41.0 °F /  5 °C 24.0 °F /  -4.4 °C 30.2in /  1022.6hPa NW 18mph /  29km/h 25mph /  40.2km/h 50% 0.000in /  0mm 0.00 W/m2
20:19 41.0 °F /  5 °C 23.0 °F /  -5 °C 30.2in /  1022.6hPa NW 19mph /  30.6km/h 22mph /  35.4km/h 49% 0.000in /  0mm 0.00 W/m2
20:24 41.0 °F /  5 °C 23.0 °F /  -5 °C 30.2in /  1022.6hPa NW 13mph /  20.9km/h 25mph /  40.2km/h 49% 0.000in /  0mm 0.00 W/m2
20:29 41.0 °F /  5 °C 23.0 °F /  -5 °C 30.2in /  1022.6hPa NW 14mph /  22.5km/h 15mph /  24.1km/h 49% 0.000in /  0mm 0.00 W/m2
20:34 41.0 °F /  5 °C 23.0 °F /  -5 °C 30.2in /  1022.6hPa NW 18mph /  29km/h 19mph /  30.6km/h 49% 0.000in /  0mm 0.00 W/m2
20:39 41.0 °F /  5 °C 23.0 °F /  -5 °C 30.2in /  1022.6hPa NW 18mph /  29km/h 19mph /  30.6km/h 50% 0.000in /  0mm 0.00 W/m2
20:44 40.0 °F /  4.4 °C 23.0 °F /  -5 °C 30.2in /  1022.6hPa NW 23mph /  37km/h 23mph /  37km/h 50% 0.000in /  0mm 0.00 W/m2
20:49 40.0 °F /  4.4 °C 23.0 °F /  -5 °C 30.2in /  1022.6hPa NW 15mph /  24.1km/h 23mph /  37km/h 50% 0.000in /  0mm 0.00 W/m2
20:54 40.0 °F /  4.4 °C 23.0 °F /  -5 °C 30.2in /  1022.6hPa NW 15mph /  24.1km/h 19mph /  30.6km/h 51% 0.000in /  0mm 0.00 W/m2
20:59 40.0 °F /  4.4 °C 23.0 °F /  -5 °C 30.2in /  1022.6hPa NW 16mph /  25.7km/h 19mph /  30.6km/h 51% 0.000in /  0mm 0.00 W/m2
21:04 40.0 °F /  4.4 °C 23.0 °F /  -5 °C 30.2in /  1022.6hPa NW 18mph /  29km/h 18mph /  29km/h 51% 0.000in /  0mm 0.00 W/m2
21:09 39.0 °F /  3.9 °C 23.0 °F /  -5 °C 30.2in /  1022.6hPa NW 15mph /  24.1km/h 16mph /  25.7km/h 51% 0.000in /  0mm 0.00 W/m2
21:14 39.0 °F /  3.9 °C 23.0 °F /  -5 °C 30.2in /  1022.6hPa NW 15mph /  24.1km/h 15mph /  24.1km/h 52% 0.000in /  0mm 0.00 W/m2
21:19 39.0 °F /  3.9 °C 23.0 °F /  -5 °C 30.2in /  1022.6hPa NW 13mph /  20.9km/h 18mph /  29km/h 52% 0.000in /  0mm 0.00 W/m2
21:24 39.0 °F /  3.9 °C 23.0 °F /  -5 °C 30.2in /  1022.6hPa WNW 14mph /  22.5km/h 15mph /  24.1km/h 52% 0.000in /  0mm 0.00 W/m2
21:29 39.0 °F /  3.9 °C 23.0 °F /  -5 °C 30.2in /  1022.6hPa NW 16mph /  25.7km/h 18mph /  29km/h 53% 0.000in /  0mm 0.00 W/m2
21:34 39.0 °F /  3.9 °C 23.0 °F /  -5 °C 30.2in /  1022.6hPa NW 17mph /  27.4km/h 18mph /  29km/h 53% 0.000in /  0mm 0.00 W/m2
21:39 39.0 °F /  3.9 °C 23.0 °F /  -5 °C 30.2in /  1022.6hPa NW 17mph /  27.4km/h 19mph /  30.6km/h 53% 0.000in /  0mm 0.00 W/m2
21:44 39.0 °F /  3.9 °C 23.0 °F /  -5 °C 30.2in /  1022.6hPa NW 17mph /  27.4km/h 17mph /  27.4km/h 53% 0.000in /  0mm 0.00 W/m2
21:49 39.0 °F /  3.9 °C 23.0 °F /  -5 °C 30.2in /  1022.6hPa NW 19mph /  30.6km/h 21mph /  33.8km/h 53% 0.000in /  0mm 0.00 W/m2
21:54 39.0 °F /  3.9 °C 23.0 °F /  -5 °C 30.2in /  1022.6hPa NW 15mph /  24.1km/h 15mph /  24.1km/h 54% 0.000in /  0mm 0.00 W/m2
21:59 38.0 °F /  3.3 °C 23.0 °F /  -5 °C 30.2in /  1022.6hPa NW 15mph /  24.1km/h 21mph /  33.8km/h 54% 0.000in /  0mm 0.00 W/m2
22:04 38.0 °F /  3.3 °C 23.0 °F /  -5 °C 30.2in /  1022.6hPa NW 20mph /  32.2km/h 20mph /  32.2km/h 54% 0.000in /  0mm 0.00 W/m2
22:09 38.0 °F /  3.3 °C 23.0 °F /  -5 °C 30.2in /  1022.6hPa NW 18mph /  29km/h 25mph /  40.2km/h 54% 0.000in /  0mm 0.00 W/m2
22:14 38.0 °F /  3.3 °C 23.0 °F /  -5 °C 30.2in /  1022.6hPa NW 19mph /  30.6km/h 19mph /  30.6km/h 54% 0.000in /  0mm 0.00 W/m2
22:19 38.0 °F /  3.3 °C 23.0 °F /  -5 °C 30.2in /  1022.6hPa NW 21mph /  33.8km/h 21mph /  33.8km/h 54% 0.000in /  0mm 0.00 W/m2
22:24 38.0 °F /  3.3 °C 23.0 °F /  -5 °C 30.2in /  1022.6hPa NW 21mph /  33.8km/h 21mph /  33.8km/h 55% 0.000in /  0mm 0.00 W/m2
22:29 38.0 °F /  3.3 °C 23.0 °F /  -5 °C 30.2in /  1022.6hPa NW 14mph /  22.5km/h 21mph /  33.8km/h 55% 0.000in /  0mm 0.00 W/m2
22:34 37.0 °F /  2.8 °C 23.0 °F /  -5 °C 30.2in /  1022.6hPa NW 15mph /  24.1km/h 15mph /  24.1km/h 55% 0.000in /  0mm 0.00 W/m2
22:39 37.0 °F /  2.8 °C 23.0 °F /  -5 °C 30.2in /  1022.6hPa NW 15mph /  24.1km/h 15mph /  24.1km/h 55% 0.000in /  0mm 0.00 W/m2
22:44 37.0 °F /  2.8 °C 23.0 °F /  -5 °C 30.2in /  1022.6hPa NW 13mph /  20.9km/h 15mph /  24.1km/h 56% 0.000in /  0mm 0.00 W/m2
22:49 37.0 °F /  2.8 °C 23.0 °F /  -5 °C 30.2in /  1022.6hPa NW 18mph /  29km/h 18mph /  29km/h 56% 0.000in /  0mm 0.00 W/m2
22:54 37.0 °F /  2.8 °C 23.0 °F /  -5 °C 30.2in /  1022.6hPa NW 13mph /  20.9km/h 15mph /  24.1km/h 56% 0.000in /  0mm 0.00 W/m2
22:59 37.0 °F /  2.8 °C 23.0 °F /  -5 °C 30.2in /  1022.6hPa NW 14mph /  22.5km/h 15mph /  24.1km/h 56% 0.000in /  0mm 0.00 W/m2
23:04 37.0 °F /  2.8 °C 23.0 °F /  -5 °C 30.2in /  1022.6hPa NW 13mph /  20.9km/h 15mph /  24.1km/h 56% 0.000in /  0mm 0.00 W/m2
23:09 37.0 °F /  2.8 °C 23.0 °F /  -5 °C 30.2in /  1022.6hPa NW 15mph /  24.1km/h 16mph /  25.7km/h 57% 0.000in /  0mm 0.00 W/m2
23:14 37.0 °F /  2.8 °C 23.0 °F /  -5 °C 30.2in /  1022.6hPa WNW 15mph /  24.1km/h 16mph /  25.7km/h 57% 0.000in /  0mm 0.00 W/m2
23:19 37.0 °F /  2.8 °C 23.0 °F /  -5 °C 30.2in /  1022.6hPa NW 15mph /  24.1km/h 18mph /  29km/h 57% 0.000in /  0mm 0.00 W/m2
23:24 37.0 °F /  2.8 °C 23.0 °F /  -5 °C 30.2in /  1022.6hPa NW 16mph /  25.7km/h 16mph /  25.7km/h 57% 0.000in /  0mm 0.00 W/m2
23:29 37.0 °F /  2.8 °C 23.0 °F /  -5 °C 30.2in /  1022.6hPa NW 13mph /  20.9km/h 17mph /  27.4km/h 57% 0.000in /  0mm 0.00 W/m2
23:34 36.0 °F /  2.2 °C 23.0 °F /  -5 °C 30.2in /  1022.6hPa NW 16mph /  25.7km/h 17mph /  27.4km/h 57% 0.000in /  0mm 0.00 W/m2
23:39 36.0 °F /  2.2 °C 23.0 °F /  -5 °C 30.2in /  1022.6hPa NW 12mph /  19.3km/h 17mph /  27.4km/h 58% 0.000in /  0mm 0.00 W/m2
23:44 36.0 °F /  2.2 °C 23.0 °F /  -5 °C 30.2in /  1022.6hPa NW 13mph /  20.9km/h 15mph /  24.1km/h 58% 0.000in /  0mm 0.00 W/m2
23:49 36.0 °F /  2.2 °C 23.0 °F /  -5 °C 30.2in /  1022.6hPa NW 16mph /  25.7km/h 19mph /  30.6km/h 58% 0.000in /  0mm 0.00 W/m2
23:54 36.0 °F /  2.2 °C 23.0 °F /  -5 °C 30.2in /  1022.6hPa NW 12mph /  19.3km/h 19mph /  30.6km/h 58% 0.000in /  0mm 0.00 W/m2
23:59 36.0 °F /  2.2 °C 23.0 °F /  -5 °C 30.2in /  1022.6hPa NW 15mph /  24.1km/h 17mph /  27.4km/h 58% 0.000in /  0mm 0.00 W/m2
Villages of Bridgestone, Spring, TX USA
Compliments of Weather Underground - 4 mb